createdAt,value
2023-03-29T00:02:33.706Z,3.60
2023-03-29T00:07:36.825Z,4.00
2023-03-29T00:12:41.889Z,3.30
2023-03-29T00:17:44.772Z,2.90
2023-03-29T00:22:47.637Z,3.60
2023-03-29T00:27:51.103Z,4.20
2023-03-29T00:32:53.851Z,4.20
2023-03-29T00:37:57.836Z,3.70
2023-03-29T00:43:01.052Z,3.20
2023-03-29T00:48:11.231Z,3.40
2023-03-29T00:53:23.068Z,2.90
2023-03-29T00:58:40.581Z,2.90
2023-03-29T01:03:58.357Z,3.50
2023-03-29T01:09:09.426Z,3.00
2023-03-29T01:14:20.722Z,4.00
2023-03-29T01:19:27.480Z,3.40
2023-03-29T01:30:04.276Z,3.20
2023-03-29T01:35:35.862Z,4.10
2023-03-29T01:40:38.895Z,4.00
2023-03-29T01:45:48.195Z,3.90
2023-03-29T01:51:18.785Z,3.20
2023-03-29T01:56:26.469Z,3.30
2023-03-29T02:01:34.723Z,3.50
2023-03-29T02:06:39.747Z,2.80
2023-03-29T02:11:44.950Z,2.50
2023-03-29T02:16:49.741Z,3.40
2023-03-29T02:22:04.086Z,2.40
2023-03-29T02:27:07.589Z,4.00
2023-03-29T02:32:19.808Z,3.20
2023-03-29T02:37:26.721Z,3.10
2023-03-29T02:42:30.497Z,3.00
2023-03-29T02:47:43.969Z,3.30
2023-03-29T02:52:54.173Z,3.20
2023-03-29T02:57:57.992Z,3.50
2023-03-29T03:03:02.037Z,3.90
2023-03-29T03:08:07.341Z,3.50
2023-03-29T03:13:10.293Z,2.60
2023-03-29T03:18:13.129Z,3.00
2023-03-29T03:23:15.900Z,3.00
2023-03-29T03:28:19.247Z,3.60
2023-03-29T03:33:22.012Z,3.20
2023-03-29T03:38:24.718Z,3.30
2023-03-29T03:43:28.267Z,3.10
2023-03-29T03:48:31.775Z,4.10
2023-03-29T03:53:34.493Z,3.90
2023-03-29T03:58:38.104Z,4.30
2023-03-29T04:03:41.185Z,3.00
2023-03-29T04:08:44.263Z,3.30
2023-03-29T04:13:47.016Z,3.60
2023-03-29T04:18:50.063Z,4.30
2023-03-29T04:23:52.946Z,3.70
2023-03-29T04:28:56.035Z,4.50
2023-03-29T04:34:00.396Z,4.30
2023-03-29T04:39:04.363Z,5.80
2023-03-29T04:44:07.127Z,4.80
2023-03-29T04:49:10.153Z,4.60
2023-03-29T04:54:12.892Z,4.70
2023-03-29T04:59:15.601Z,5.30
2023-03-29T05:04:18.483Z,5.30
2023-03-29T05:09:22.316Z,4.40
2023-03-29T05:14:26.092Z,5.60
2023-03-29T05:19:28.797Z,5.70
2023-03-29T05:24:31.850Z,4.40
2023-03-29T05:29:34.583Z,6.20
2023-03-29T05:34:40.434Z,6.20
2023-03-29T05:39:44.353Z,4.70
2023-03-29T05:44:49.517Z,5.00
2023-03-29T05:49:52.863Z,4.70
2023-03-29T05:54:56.867Z,4.60
2023-03-29T05:59:59.595Z,4.00
2023-03-29T06:05:03.119Z,4.80
2023-03-29T06:10:09.717Z,4.20
2023-03-29T06:15:14.261Z,3.80
2023-03-29T06:20:21.004Z,3.30
2023-03-29T06:25:25.056Z,3.90
2023-03-29T06:30:27.962Z,4.10
2023-03-29T06:35:46.037Z,3.30
2023-03-29T06:40:49.485Z,4.00
2023-03-29T06:45:55.085Z,4.50
2023-03-29T06:50:57.965Z,4.00
2023-03-29T06:56:05.375Z,4.30
2023-03-29T07:01:08.136Z,4.40
2023-03-29T07:06:12.305Z,4.40
2023-03-29T07:11:16.380Z,4.10
2023-03-29T07:16:19.676Z,4.00
2023-03-29T07:21:24.837Z,4.90
2023-03-29T07:26:30.158Z,4.00
2023-03-29T07:31:35.842Z,4.20
2023-03-29T07:36:44.744Z,3.80
2023-03-29T07:41:50.082Z,4.10
2023-03-29T07:46:52.873Z,3.90
2023-03-29T07:51:58.722Z,5.00
2023-03-29T07:57:02.642Z,4.20
2023-03-29T08:02:07.526Z,4.00
2023-03-29T08:07:10.458Z,3.90
2023-03-29T08:12:25.093Z,4.10
2023-03-29T08:17:28.293Z,4.00
2023-03-29T08:22:32.841Z,3.40
2023-03-29T08:27:35.789Z,2.80
2023-03-29T08:32:39.497Z,2.70
2023-03-29T08:37:44.725Z,3.90
2023-03-29T08:42:59.413Z,3.20
2023-03-29T08:48:17.841Z,3.00
2023-03-29T08:53:29.828Z,3.30
2023-03-29T08:58:34.321Z,2.90
2023-03-29T09:09:18.029Z,2.50
2023-03-29T09:14:36.656Z,2.50
2023-03-29T09:20:16.254Z,2.30
2023-03-29T09:25:47.237Z,2.60
2023-03-29T09:31:12.487Z,2.60
2023-03-29T09:36:25.845Z,2.50
2023-03-29T09:41:57.490Z,2.60
2023-03-29T09:47:29.613Z,2.50
2023-03-29T09:57:50.853Z,2.80
2023-03-29T10:02:57.852Z,3.10
2023-03-29T10:08:19.669Z,2.90
2023-03-29T10:13:33.044Z,3.00
2023-03-29T10:18:43.876Z,2.60
2023-03-29T10:23:48.547Z,2.60
2023-03-29T10:28:54.976Z,2.70
2023-03-29T10:34:02.999Z,2.90
2023-03-29T10:39:30.945Z,3.10
2023-03-29T10:44:36.606Z,2.30
2023-03-29T10:49:41.754Z,3.00
2023-03-29T10:54:44.849Z,3.00
2023-03-29T10:59:57.898Z,3.40
2023-03-29T11:05:17.781Z,3.30
2023-03-29T11:10:35.583Z,3.00
2023-03-29T11:15:56.625Z,2.80
2023-03-29T11:21:36.948Z,2.50
2023-03-29T11:27:12.291Z,4.30
2023-03-29T11:32:19.189Z,2.60
2023-03-29T11:37:32.962Z,2.90
2023-03-29T11:42:43.645Z,2.10
2023-03-29T11:47:48.359Z,2.20
2023-03-29T11:53:17.927Z,2.80
2023-03-29T11:58:36.644Z,2.30
2023-03-29T12:03:55.848Z,2.50
2023-03-29T12:09:14.272Z,3.20
2023-03-29T12:14:28.291Z,2.50
2023-03-29T12:19:33.888Z,2.80
2023-03-29T12:24:40.894Z,2.50
2023-03-29T12:29:49.683Z,2.50
2023-03-29T12:35:02.739Z,2.90
2023-03-29T12:40:14.075Z,2.80
2023-03-29T12:45:52.111Z,2.80
2023-03-29T12:51:02.320Z,2.60
2023-03-29T12:56:08.876Z,3.10
2023-03-29T13:06:54.221Z,3.10
2023-03-29T13:12:11.180Z,3.10
2023-03-29T13:17:35.001Z,2.60
2023-03-29T13:23:03.243Z,2.90
2023-03-29T13:28:34.428Z,2.70
2023-03-29T13:33:53.756Z,3.00
2023-03-29T13:39:07.129Z,2.70
2023-03-29T13:44:22.260Z,3.10
2023-03-29T13:49:27.931Z,3.40
2023-03-29T13:54:33.248Z,2.90
2023-03-29T13:59:52.310Z,2.70
2023-03-29T14:04:56.251Z,2.60
2023-03-29T14:10:01.288Z,2.80
2023-03-29T14:15:07.552Z,2.70
2023-03-29T14:20:15.634Z,3.50
2023-03-29T14:25:22.776Z,3.30
2023-03-29T14:30:29.057Z,3.00
2023-03-29T14:35:33.285Z,2.80
2023-03-29T14:40:36.557Z,2.70
2023-03-29T14:45:39.586Z,2.80
2023-03-29T14:50:44.246Z,3.10
2023-03-29T14:55:51.792Z,3.40
2023-03-29T15:00:55.334Z,3.60
2023-03-29T15:06:02.837Z,3.60
2023-03-29T15:11:33.047Z,3.40
2023-03-29T15:16:42.165Z,3.30
2023-03-29T15:21:47.958Z,3.30
2023-03-29T15:27:03.737Z,3.80
2023-03-29T15:32:07.050Z,4.70
2023-03-29T15:37:12.684Z,4.70
2023-03-29T15:42:15.514Z,5.00
2023-03-29T15:47:18.224Z,5.00
2023-03-29T15:52:21.009Z,4.80
2023-03-29T15:57:23.865Z,5.60
2023-03-29T16:02:28.471Z,5.50
2023-03-29T16:07:31.354Z,5.00
2023-03-29T16:12:36.087Z,6.10
2023-03-29T16:17:38.956Z,5.10
2023-03-29T16:22:42.687Z,5.90
2023-03-29T16:27:46.534Z,7.90
2023-03-29T16:32:49.286Z,7.10
2023-03-29T16:37:52.555Z,6.60
2023-03-29T16:42:55.377Z,6.90
2023-03-29T16:47:58.362Z,6.80
2023-03-29T16:53:01.153Z,7.20
2023-03-29T16:58:05.005Z,7.70
2023-03-29T17:03:08.227Z,7.90
2023-03-29T17:08:11.075Z,8.20
2023-03-29T17:13:13.881Z,9.80
2023-03-29T17:18:16.590Z,11.10
2023-03-29T17:23:19.438Z,9.20
2023-03-29T17:28:23.226Z,8.50
2023-03-29T17:33:26.398Z,7.60
2023-03-29T17:38:30.746Z,7.10
2023-03-29T17:43:33.487Z,7.40
2023-03-29T17:48:36.255Z,8.90
2023-03-29T17:53:39.044Z,7.80
2023-03-29T17:58:41.840Z,7.20
2023-03-29T18:03:45.144Z,7.00
2023-03-29T18:08:48.238Z,8.00
2023-03-29T18:13:53.015Z,7.80
2023-03-29T18:18:56.949Z,7.70
2023-03-29T18:23:59.773Z,9.00
2023-03-29T18:29:02.749Z,9.10
2023-03-29T18:34:05.886Z,10.20
2023-03-29T18:39:09.196Z,10.40
2023-03-29T18:44:14.171Z,8.90
2023-03-29T18:49:16.884Z,9.00
2023-03-29T18:54:19.871Z,8.40
2023-03-29T18:59:22.636Z,8.30
2023-03-29T19:04:27.225Z,9.40
2023-03-29T19:09:31.042Z,8.80
2023-03-29T19:14:33.809Z,9.20
2023-03-29T19:19:37.974Z,10.60
2023-03-29T19:24:40.701Z,10.10
2023-03-29T19:29:43.424Z,9.90
2023-03-29T19:34:47.649Z,8.90
2023-03-29T19:39:50.864Z,8.60
2023-03-29T19:44:53.700Z,8.60
2023-03-29T19:49:58.548Z,8.30
2023-03-29T19:55:01.428Z,8.90
2023-03-29T20:00:08.137Z,8.70
2023-03-29T20:05:12.657Z,9.20
2023-03-29T20:10:15.587Z,9.20
2023-03-29T20:15:19.170Z,10.20
2023-03-29T20:20:24.297Z,11.30
2023-03-29T20:25:27.905Z,10.80
2023-03-29T20:30:30.786Z,9.80
2023-03-29T20:35:33.647Z,9.30
2023-03-29T20:40:37.211Z,9.50
2023-03-29T20:45:52.822Z,8.60
2023-03-29T20:50:57.890Z,7.10
2023-03-29T20:56:00.716Z,6.90
2023-03-29T21:01:03.809Z,6.50
2023-03-29T21:06:06.930Z,7.10
2023-03-29T21:11:13.185Z,6.00
2023-03-29T21:16:16.071Z,5.60
2023-03-29T21:21:19.095Z,5.40
2023-03-29T21:26:23.948Z,6.20
2023-03-29T21:31:26.705Z,6.20
2023-03-29T21:36:30.560Z,5.80
2023-03-29T21:41:33.310Z,6.20
2023-03-29T21:46:36.033Z,5.90
2023-03-29T21:51:38.818Z,6.30
2023-03-29T21:56:41.627Z,7.10
2023-03-29T22:01:44.391Z,8.00
2023-03-29T22:06:47.114Z,7.20
2023-03-29T22:11:50.199Z,6.70
2023-03-29T22:16:53.052Z,6.20
2023-03-29T22:22:01.462Z,6.50
2023-03-29T22:27:04.405Z,7.20
2023-03-29T22:32:07.214Z,7.00
2023-03-29T22:37:10.196Z,7.20
2023-03-29T22:42:12.903Z,7.30
2023-03-29T22:47:16.181Z,6.80
2023-03-29T22:52:18.882Z,6.30
2023-03-29T22:57:21.723Z,6.50
2023-03-29T23:02:24.469Z,7.50
2023-03-29T23:07:28.326Z,6.80
2023-03-29T23:12:32.017Z,7.50
2023-03-29T23:17:35.107Z,8.30
2023-03-29T23:22:39.843Z,7.80
2023-03-29T23:27:43.331Z,6.80
2023-03-29T23:32:46.983Z,7.60
2023-03-29T23:37:49.751Z,7.60
2023-03-29T23:42:59.739Z,8.20
2023-03-29T23:48:02.807Z,7.50
2023-03-29T23:53:06.582Z,7.60
2023-03-29T23:58:09.332Z,7.90
